sensor_id;sensor_type;location;lat;lon;timestamp;P1;durP1;ratioP1;P2;durP2;ratioP2
30818;SDS011;17546;42.674;23.284;2023-05-17T00:00:07;20.30;;;10.55;;
30818;SDS011;17546;42.674;23.284;2023-05-17T00:02:34;24.92;;;10.55;;
30818;SDS011;17546;42.674;23.284;2023-05-17T00:04:59;32.78;;;10.35;;
30818;SDS011;17546;42.674;23.284;2023-05-17T00:07:25;21.95;;;9.80;;
30818;SDS011;17546;42.674;23.284;2023-05-17T00:09:50;25.27;;;10.18;;
30818;SDS011;17546;42.674;23.284;2023-05-17T00:12:15;22.10;;;10.48;;
30818;SDS011;17546;42.674;23.284;2023-05-17T00:14:41;22.10;;;9.80;;
30818;SDS011;17546;42.674;23.284;2023-05-17T00:17:06;30.35;;;10.20;;
30818;SDS011;17546;42.674;23.284;2023-05-17T00:19:32;20.63;;;9.80;;
30818;SDS011;17546;42.674;23.284;2023-05-17T00:21:57;25.83;;;10.13;;
30818;SDS011;17546;42.674;23.284;2023-05-17T00:24:22;25.88;;;10.40;;
30818;SDS011;17546;42.674;23.284;2023-05-17T00:26:48;24.35;;;10.70;;
30818;SDS011;17546;42.674;23.284;2023-05-17T00:29:13;23.48;;;10.68;;
30818;SDS011;17546;42.674;23.284;2023-05-17T00:31:38;24.13;;;10.32;;
30818;SDS011;17546;42.674;23.284;2023-05-17T00:34:05;25.05;;;10.30;;
30818;SDS011;17546;42.674;23.284;2023-05-17T00:36:30;26.63;;;11.00;;
30818;SDS011;17546;42.674;23.284;2023-05-17T00:38:55;28.77;;;11.10;;
30818;SDS011;17546;42.674;23.284;2023-05-17T00:41:21;26.25;;;11.15;;
30818;SDS011;17546;42.674;23.284;2023-05-17T00:43:46;19.55;;;11.13;;
30818;SDS011;17546;42.674;23.284;2023-05-17T00:46:11;20.63;;;10.65;;
30818;SDS011;17546;42.674;23.284;2023-05-17T00:48:37;24.80;;;11.25;;
30818;SDS011;17546;42.674;23.284;2023-05-17T00:51:08;23.52;;;10.77;;
30818;SDS011;17546;42.674;23.284;2023-05-17T00:53:34;23.67;;;10.30;;
30818;SDS011;17546;42.674;23.284;2023-05-17T00:56:01;25.50;;;10.60;;
30818;SDS011;17546;42.674;23.284;2023-05-17T00:58:27;20.95;;;10.38;;
30818;SDS011;17546;42.674;23.284;2023-05-17T01:00:53;30.50;;;11.43;;
30818;SDS011;17546;42.674;23.284;2023-05-17T01:03:19;24.25;;;11.32;;
30818;SDS011;17546;42.674;23.284;2023-05-17T01:05:56;34.47;;;10.88;;
30818;SDS011;17546;42.674;23.284;2023-05-17T01:08:22;27.00;;;10.73;;
30818;SDS011;17546;42.674;23.284;2023-05-17T01:13:51;23.33;;;10.75;;
30818;SDS011;17546;42.674;23.284;2023-05-17T01:16:58;21.88;;;10.98;;
30818;SDS011;17546;42.674;23.284;2023-05-17T01:27:57;32.67;;;11.27;;
30818;SDS011;17546;42.674;23.284;2023-05-17T01:30:25;30.23;;;11.50;;
30818;SDS011;17546;42.674;23.284;2023-05-17T01:32:54;23.38;;;10.60;;
30818;SDS011;17546;42.674;23.284;2023-05-17T01:35:22;29.75;;;11.52;;
30818;SDS011;17546;42.674;23.284;2023-05-17T01:37:49;26.35;;;11.63;;
30818;SDS011;17546;42.674;23.284;2023-05-17T01:40:16;25.30;;;11.25;;
30818;SDS011;17546;42.674;23.284;2023-05-17T01:42:43;27.25;;;11.15;;
30818;SDS011;17546;42.674;23.284;2023-05-17T01:50:48;27.65;;;12.13;;
30818;SDS011;17546;42.674;23.284;2023-05-17T01:53:37;24.98;;;11.48;;
30818;SDS011;17546;42.674;23.284;2023-05-17T01:58:46;20.15;;;11.23;;
30818;SDS011;17546;42.674;23.284;2023-05-17T02:01:15;23.33;;;10.65;;
30818;SDS011;17546;42.674;23.284;2023-05-17T02:03:51;23.88;;;11.45;;
30818;SDS011;17546;42.674;23.284;2023-05-17T02:06:17;28.25;;;11.48;;
30818;SDS011;17546;42.674;23.284;2023-05-17T02:08:42;27.80;;;10.65;;
30818;SDS011;17546;42.674;23.284;2023-05-17T02:11:07;27.40;;;10.60;;
30818;SDS011;17546;42.674;23.284;2023-05-17T02:13:33;29.27;;;10.98;;
30818;SDS011;17546;42.674;23.284;2023-05-17T02:15:59;21.83;;;11.27;;
30818;SDS011;17546;42.674;23.284;2023-05-17T02:18:28;29.17;;;12.02;;
30818;SDS011;17546;42.674;23.284;2023-05-17T02:20:54;23.83;;;10.75;;
30818;SDS011;17546;42.674;23.284;2023-05-17T02:23:20;27.45;;;10.43;;
30818;SDS011;17546;42.674;23.284;2023-05-17T02:25:45;26.10;;;9.98;;
30818;SDS011;17546;42.674;23.284;2023-05-17T02:28:12;22.10;;;9.73;;
30818;SDS011;17546;42.674;23.284;2023-05-17T02:30:38;27.98;;;9.68;;
30818;SDS011;17546;42.674;23.284;2023-05-17T02:33:06;26.15;;;9.63;;
30818;SDS011;17546;42.674;23.284;2023-05-17T02:35:34;33.20;;;10.10;;
30818;SDS011;17546;42.674;23.284;2023-05-17T02:38:00;22.98;;;10.15;;
30818;SDS011;17546;42.674;23.284;2023-05-17T02:40:26;30.33;;;10.00;;
30818;SDS011;17546;42.674;23.284;2023-05-17T02:42:51;25.27;;;10.48;;
30818;SDS011;17546;42.674;23.284;2023-05-17T02:45:16;27.65;;;10.82;;
30818;SDS011;17546;42.674;23.284;2023-05-17T02:47:42;25.42;;;10.65;;
30818;SDS011;17546;42.674;23.284;2023-05-17T02:50:07;24.60;;;10.27;;
30818;SDS011;17546;42.674;23.284;2023-05-17T02:52:34;31.25;;;10.63;;
30818;SDS011;17546;42.674;23.284;2023-05-17T02:55:00;25.02;;;10.02;;
30818;SDS011;17546;42.674;23.284;2023-05-17T02:57:25;26.85;;;9.82;;
30818;SDS011;17546;42.674;23.284;2023-05-17T02:59:51;43.35;;;11.20;;
30818;SDS011;17546;42.674;23.284;2023-05-17T03:02:16;21.98;;;9.77;;
30818;SDS011;17546;42.674;23.284;2023-05-17T03:04:41;22.00;;;9.85;;
30818;SDS011;17546;42.674;23.284;2023-05-17T03:07:07;29.60;;;11.18;;
30818;SDS011;17546;42.674;23.284;2023-05-17T03:09:34;22.73;;;10.45;;
30818;SDS011;17546;42.674;23.284;2023-05-17T03:11:59;25.67;;;10.25;;
30818;SDS011;17546;42.674;23.284;2023-05-17T03:14:25;24.83;;;10.45;;
30818;SDS011;17546;42.674;23.284;2023-05-17T03:16:50;21.15;;;10.15;;
30818;SDS011;17546;42.674;23.284;2023-05-17T03:19:26;28.65;;;10.18;;
30818;SDS011;17546;42.674;23.284;2023-05-17T03:21:52;31.05;;;11.20;;
30818;SDS011;17546;42.674;23.284;2023-05-17T03:24:17;23.17;;;10.90;;
30818;SDS011;17546;42.674;23.284;2023-05-17T03:26:48;28.23;;;10.55;;
30818;SDS011;17546;42.674;23.284;2023-05-17T03:29:14;24.13;;;11.02;;
30818;SDS011;17546;42.674;23.284;2023-05-17T03:31:39;27.08;;;11.23;;
30818;SDS011;17546;42.674;23.284;2023-05-17T03:34:04;25.95;;;11.48;;
30818;SDS011;17546;42.674;23.284;2023-05-17T03:36:31;25.30;;;11.45;;
30818;SDS011;17546;42.674;23.284;2023-05-17T03:38:58;24.50;;;11.38;;
30818;SDS011;17546;42.674;23.284;2023-05-17T03:41:23;30.35;;;11.90;;
30818;SDS011;17546;42.674;23.284;2023-05-17T03:43:49;29.65;;;11.20;;
30818;SDS011;17546;42.674;23.284;2023-05-17T03:46:14;30.20;;;12.25;;
30818;SDS011;17546;42.674;23.284;2023-05-17T03:48:39;31.77;;;12.63;;
30818;SDS011;17546;42.674;23.284;2023-05-17T03:51:05;26.02;;;11.75;;
30818;SDS011;17546;42.674;23.284;2023-05-17T03:53:32;26.42;;;11.95;;
30818;SDS011;17546;42.674;23.284;2023-05-17T03:55:58;25.80;;;12.27;;
30818;SDS011;17546;42.674;23.284;2023-05-17T03:58:23;34.22;;;12.00;;
30818;SDS011;17546;42.674;23.284;2023-05-17T04:00:48;33.03;;;11.02;;
30818;SDS011;17546;42.674;23.284;2023-05-17T04:03:14;27.50;;;11.20;;
30818;SDS011;17546;42.674;23.284;2023-05-17T04:05:40;28.08;;;12.45;;
30818;SDS011;17546;42.674;23.284;2023-05-17T04:08:05;28.45;;;12.55;;
30818;SDS011;17546;42.674;23.284;2023-05-17T04:10:31;26.30;;;11.60;;
30818;SDS011;17546;42.674;23.284;2023-05-17T04:12:59;26.52;;;11.93;;
30818;SDS011;17546;42.674;23.284;2023-05-17T04:15:26;28.58;;;12.20;;
30818;SDS011;17546;42.674;23.284;2023-05-17T04:17:51;30.55;;;13.13;;
30818;SDS011;17546;42.674;23.284;2023-05-17T04:20:17;32.08;;;12.80;;
30818;SDS011;17546;42.674;23.284;2023-05-17T04:22:42;30.73;;;13.73;;
30818;SDS011;17546;42.674;23.284;2023-05-17T04:25:07;28.05;;;14.63;;
30818;SDS011;17546;42.674;23.284;2023-05-17T04:27:33;35.97;;;15.45;;
30818;SDS011;17546;42.674;23.284;2023-05-17T04:30:09;37.70;;;16.60;;
30818;SDS011;17546;42.674;23.284;2023-05-17T04:32:34;34.38;;;16.73;;
30818;SDS011;17546;42.674;23.284;2023-05-17T04:35:00;38.63;;;16.83;;
30818;SDS011;17546;42.674;23.284;2023-05-17T04:37:25;43.05;;;17.17;;
30818;SDS011;17546;42.674;23.284;2023-05-17T04:39:51;37.95;;;18.73;;
30818;SDS011;17546;42.674;23.284;2023-05-17T04:42:17;36.67;;;17.95;;
30818;SDS011;17546;42.674;23.284;2023-05-17T04:44:43;36.75;;;19.33;;
30818;SDS011;17546;42.674;23.284;2023-05-17T04:47:08;42.50;;;19.42;;
30818;SDS011;17546;42.674;23.284;2023-05-17T04:49:34;32.90;;;18.40;;
30818;SDS011;17546;42.674;23.284;2023-05-17T04:52:00;40.58;;;19.13;;
30818;SDS011;17546;42.674;23.284;2023-05-17T04:54:27;34.15;;;18.20;;
30818;SDS011;17546;42.674;23.284;2023-05-17T04:56:53;46.47;;;21.20;;
30818;SDS011;17546;42.674;23.284;2023-05-17T04:59:18;33.90;;;18.38;;
30818;SDS011;17546;42.674;23.284;2023-05-17T05:01:49;30.50;;;19.30;;
30818;SDS011;17546;42.674;23.284;2023-05-17T05:04:15;37.22;;;19.35;;
30818;SDS011;17546;42.674;23.284;2023-05-17T05:06:40;43.80;;;20.88;;
30818;SDS011;17546;42.674;23.284;2023-05-17T05:09:14;38.72;;;19.83;;
30818;SDS011;17546;42.674;23.284;2023-05-17T05:11:40;41.05;;;20.45;;
30818;SDS011;17546;42.674;23.284;2023-05-17T05:14:05;33.83;;;19.35;;
30818;SDS011;17546;42.674;23.284;2023-05-17T05:16:32;39.75;;;19.45;;
30818;SDS011;17546;42.674;23.284;2023-05-17T05:18:58;39.50;;;19.15;;
30818;SDS011;17546;42.674;23.284;2023-05-17T05:21:23;40.92;;;20.05;;
30818;SDS011;17546;42.674;23.284;2023-05-17T05:23:51;36.80;;;18.70;;
30818;SDS011;17546;42.674;23.284;2023-05-17T05:26:17;42.47;;;18.20;;
30818;SDS011;17546;42.674;23.284;2023-05-17T05:28:51;37.38;;;16.85;;
30818;SDS011;17546;42.674;23.284;2023-05-17T05:31:17;31.40;;;17.30;;
30818;SDS011;17546;42.674;23.284;2023-05-17T05:33:42;34.50;;;17.60;;
30818;SDS011;17546;42.674;23.284;2023-05-17T05:36:09;43.95;;;17.33;;
30818;SDS011;17546;42.674;23.284;2023-05-17T05:38:35;39.03;;;19.65;;
30818;SDS011;17546;42.674;23.284;2023-05-17T05:41:01;37.13;;;19.70;;
30818;SDS011;17546;42.674;23.284;2023-05-17T05:43:26;32.55;;;16.90;;
30818;SDS011;17546;42.674;23.284;2023-05-17T05:45:52;40.28;;;17.92;;
30818;SDS011;17546;42.674;23.284;2023-05-17T05:48:17;32.92;;;16.45;;
30818;SDS011;17546;42.674;23.284;2023-05-17T05:50:43;30.55;;;16.58;;
30818;SDS011;17546;42.674;23.284;2023-05-17T05:53:14;37.80;;;18.60;;
30818;SDS011;17546;42.674;23.284;2023-05-17T05:55:40;34.22;;;16.35;;
30818;SDS011;17546;42.674;23.284;2023-05-17T05:58:06;33.53;;;15.80;;
30818;SDS011;17546;42.674;23.284;2023-05-17T06:00:32;31.95;;;15.75;;
30818;SDS011;17546;42.674;23.284;2023-05-17T06:02:59;35.28;;;16.55;;
30818;SDS011;17546;42.674;23.284;2023-05-17T06:05:25;31.50;;;15.50;;
30818;SDS011;17546;42.674;23.284;2023-05-17T06:07:50;34.33;;;15.90;;
30818;SDS011;17546;42.674;23.284;2023-05-17T06:10:15;30.55;;;14.93;;
30818;SDS011;17546;42.674;23.284;2023-05-17T06:12:41;31.63;;;15.20;;
30818;SDS011;17546;42.674;23.284;2023-05-17T06:15:06;40.38;;;15.55;;
30818;SDS011;17546;42.674;23.284;2023-05-17T06:17:32;29.23;;;14.30;;
30818;SDS011;17546;42.674;23.284;2023-05-17T06:19:58;32.10;;;14.70;;
30818;SDS011;17546;42.674;23.284;2023-05-17T06:22:23;28.73;;;14.52;;
30818;SDS011;17546;42.674;23.284;2023-05-17T06:24:49;25.17;;;12.90;;
30818;SDS011;17546;42.674;23.284;2023-05-17T06:27:14;26.90;;;13.05;;
30818;SDS011;17546;42.674;23.284;2023-05-17T06:29:39;27.90;;;13.60;;
30818;SDS011;17546;42.674;23.284;2023-05-17T06:32:05;29.48;;;13.38;;
30818;SDS011;17546;42.674;23.284;2023-05-17T06:34:32;32.22;;;13.23;;
30818;SDS011;17546;42.674;23.284;2023-05-17T06:36:58;27.42;;;13.63;;
30818;SDS011;17546;42.674;23.284;2023-05-17T06:39:23;28.30;;;12.68;;
30818;SDS011;17546;42.674;23.284;2023-05-17T06:41:49;28.25;;;12.88;;
30818;SDS011;17546;42.674;23.284;2023-05-17T06:44:15;24.77;;;12.15;;
30818;SDS011;17546;42.674;23.284;2023-05-17T06:46:40;26.95;;;12.23;;
30818;SDS011;17546;42.674;23.284;2023-05-17T06:49:06;29.63;;;12.07;;
30818;SDS011;17546;42.674;23.284;2023-05-17T06:51:31;22.95;;;11.52;;
30818;SDS011;17546;42.674;23.284;2023-05-17T06:53:56;22.95;;;11.55;;
30818;SDS011;17546;42.674;23.284;2023-05-17T06:56:22;26.50;;;11.20;;
30818;SDS011;17546;42.674;23.284;2023-05-17T06:58:47;31.90;;;11.77;;
30818;SDS011;17546;42.674;23.284;2023-05-17T07:01:13;21.77;;;10.00;;
30818;SDS011;17546;42.674;23.284;2023-05-17T07:03:39;23.33;;;10.82;;
30818;SDS011;17546;42.674;23.284;2023-05-17T07:06:05;21.33;;;10.82;;
30818;SDS011;17546;42.674;23.284;2023-05-17T07:08:30;20.38;;;10.00;;
30818;SDS011;17546;42.674;23.284;2023-05-17T07:10:56;19.73;;;10.20;;
30818;SDS011;17546;42.674;23.284;2023-05-17T07:13:21;22.52;;;10.73;;
30818;SDS011;17546;42.674;23.284;2023-05-17T07:15:46;29.13;;;11.63;;
30818;SDS011;17546;42.674;23.284;2023-05-17T07:18:12;24.33;;;12.20;;
30818;SDS011;17546;42.674;23.284;2023-05-17T07:20:38;28.30;;;11.43;;
30818;SDS011;17546;42.674;23.284;2023-05-17T07:23:03;22.17;;;11.05;;
30818;SDS011;17546;42.674;23.284;2023-05-17T07:25:28;22.77;;;11.48;;
30818;SDS011;17546;42.674;23.284;2023-05-17T07:27:55;20.80;;;10.65;;
30818;SDS011;17546;42.674;23.284;2023-05-17T07:30:21;27.98;;;11.23;;
30818;SDS011;17546;42.674;23.284;2023-05-17T07:32:46;23.98;;;11.43;;
30818;SDS011;17546;42.674;23.284;2023-05-17T07:35:11;26.13;;;11.25;;
30818;SDS011;17546;42.674;23.284;2023-05-17T07:37:37;22.05;;;11.20;;
30818;SDS011;17546;42.674;23.284;2023-05-17T07:40:02;25.75;;;12.10;;
30818;SDS011;17546;42.674;23.284;2023-05-17T07:42:29;23.13;;;11.13;;
30818;SDS011;17546;42.674;23.284;2023-05-17T07:44:55;24.83;;;11.48;;
30818;SDS011;17546;42.674;23.284;2023-05-17T07:47:20;24.38;;;11.25;;
30818;SDS011;17546;42.674;23.284;2023-05-17T07:49:45;26.70;;;11.68;;
30818;SDS011;17546;42.674;23.284;2023-05-17T07:52:11;22.67;;;10.70;;
30818;SDS011;17546;42.674;23.284;2023-05-17T07:54:36;21.67;;;10.65;;
30818;SDS011;17546;42.674;23.284;2023-05-17T07:57:02;28.42;;;12.13;;
30818;SDS011;17546;42.674;23.284;2023-05-17T07:59:27;25.58;;;11.18;;
30818;SDS011;17546;42.674;23.284;2023-05-17T08:01:53;30.67;;;10.20;;
30818;SDS011;17546;42.674;23.284;2023-05-17T08:04:18;23.52;;;10.85;;
30818;SDS011;17546;42.674;23.284;2023-05-17T08:06:45;21.60;;;10.80;;
30818;SDS011;17546;42.674;23.284;2023-05-17T08:09:12;32.05;;;11.07;;
30818;SDS011;17546;42.674;23.284;2023-05-17T08:11:39;25.95;;;10.63;;
30818;SDS011;17546;42.674;23.284;2023-05-17T08:14:10;30.38;;;10.82;;
30818;SDS011;17546;42.674;23.284;2023-05-17T08:16:39;24.15;;;10.40;;
30818;SDS011;17546;42.674;23.284;2023-05-17T08:19:05;27.55;;;10.75;;
30818;SDS011;17546;42.674;23.284;2023-05-17T08:21:30;22.38;;;10.95;;
30818;SDS011;17546;42.674;23.284;2023-05-17T08:23:56;25.70;;;10.10;;
30818;SDS011;17546;42.674;23.284;2023-05-17T08:26:21;25.83;;;9.95;;
30818;SDS011;17546;42.674;23.284;2023-05-17T08:28:47;29.50;;;10.15;;
30818;SDS011;17546;42.674;23.284;2023-05-17T08:31:12;25.48;;;10.85;;
30818;SDS011;17546;42.674;23.284;2023-05-17T08:33:37;22.33;;;10.13;;
30818;SDS011;17546;42.674;23.284;2023-05-17T08:36:03;24.77;;;9.95;;
30818;SDS011;17546;42.674;23.284;2023-05-17T08:38:32;20.65;;;9.50;;
30818;SDS011;17546;42.674;23.284;2023-05-17T08:40:58;18.63;;;9.52;;
30818;SDS011;17546;42.674;23.284;2023-05-17T08:43:24;26.63;;;9.45;;
30818;SDS011;17546;42.674;23.284;2023-05-17T08:45:50;23.75;;;9.93;;
30818;SDS011;17546;42.674;23.284;2023-05-17T08:48:17;27.98;;;9.75;;
30818;SDS011;17546;42.674;23.284;2023-05-17T08:50:44;18.20;;;9.00;;
30818;SDS011;17546;42.674;23.284;2023-05-17T08:53:10;25.50;;;9.50;;
30818;SDS011;17546;42.674;23.284;2023-05-17T08:55:38;31.98;;;9.68;;
30818;SDS011;17546;42.674;23.284;2023-05-17T08:58:06;27.65;;;9.77;;
30818;SDS011;17546;42.674;23.284;2023-05-17T09:00:33;21.75;;;9.40;;
30818;SDS011;17546;42.674;23.284;2023-05-17T09:02:59;32.92;;;10.07;;
30818;SDS011;17546;42.674;23.284;2023-05-17T09:05:25;25.83;;;9.88;;
30818;SDS011;17546;42.674;23.284;2023-05-17T09:07:52;24.17;;;9.77;;
30818;SDS011;17546;42.674;23.284;2023-05-17T09:10:18;22.52;;;8.88;;
30818;SDS011;17546;42.674;23.284;2023-05-17T09:12:43;20.73;;;9.25;;
30818;SDS011;17546;42.674;23.284;2023-05-17T09:15:13;23.45;;;9.00;;
30818;SDS011;17546;42.674;23.284;2023-05-17T09:17:40;21.20;;;9.82;;
30818;SDS011;17546;42.674;23.284;2023-05-17T09:20:06;28.02;;;11.00;;
30818;SDS011;17546;42.674;23.284;2023-05-17T09:22:33;23.67;;;10.07;;
30818;SDS011;17546;42.674;23.284;2023-05-17T09:24:59;30.20;;;10.35;;
30818;SDS011;17546;42.674;23.284;2023-05-17T09:27:29;25.40;;;10.70;;
30818;SDS011;17546;42.674;23.284;2023-05-17T09:29:55;27.02;;;10.80;;
30818;SDS011;17546;42.674;23.284;2023-05-17T09:32:21;22.75;;;10.10;;
30818;SDS011;17546;42.674;23.284;2023-05-17T09:34:48;44.97;;;10.85;;
30818;SDS011;17546;42.674;23.284;2023-05-17T09:37:15;22.75;;;9.55;;
30818;SDS011;17546;42.674;23.284;2023-05-17T09:39:43;27.30;;;9.80;;
30818;SDS011;17546;42.674;23.284;2023-05-17T09:42:13;28.88;;;9.68;;
30818;SDS011;17546;42.674;23.284;2023-05-17T09:47:26;24.67;;;9.52;;
30818;SDS011;17546;42.674;23.284;2023-05-17T09:49:54;29.48;;;9.40;;
30818;SDS011;17546;42.674;23.284;2023-05-17T09:52:21;25.67;;;9.30;;
30818;SDS011;17546;42.674;23.284;2023-05-17T09:54:51;23.85;;;9.38;;
30818;SDS011;17546;42.674;23.284;2023-05-17T09:57:20;32.20;;;9.95;;
30818;SDS011;17546;42.674;23.284;2023-05-17T09:59:46;31.65;;;10.38;;
30818;SDS011;17546;42.674;23.284;2023-05-17T10:02:26;31.00;;;9.60;;
30818;SDS011;17546;42.674;23.284;2023-05-17T10:04:54;26.92;;;9.25;;
30818;SDS011;17546;42.674;23.284;2023-05-17T10:07:21;24.25;;;8.65;;
30818;SDS011;17546;42.674;23.284;2023-05-17T10:09:50;25.70;;;8.75;;
30818;SDS011;17546;42.674;23.284;2023-05-17T10:12:17;28.55;;;9.25;;
30818;SDS011;17546;42.674;23.284;2023-05-17T10:14:49;22.45;;;8.38;;
30818;SDS011;17546;42.674;23.284;2023-05-17T10:17:16;29.02;;;9.63;;
30818;SDS011;17546;42.674;23.284;2023-05-17T10:19:43;27.88;;;8.35;;
30818;SDS011;17546;42.674;23.284;2023-05-17T10:22:10;20.00;;;7.80;;
30818;SDS011;17546;42.674;23.284;2023-05-17T10:24:37;56.63;;;10.35;;
30818;SDS011;17546;42.674;23.284;2023-05-17T10:27:04;23.00;;;8.07;;
30818;SDS011;17546;42.674;23.284;2023-05-17T10:29:32;45.20;;;9.77;;
30818;SDS011;17546;42.674;23.284;2023-05-17T10:32:01;23.33;;;8.75;;
30818;SDS011;17546;42.674;23.284;2023-05-17T10:34:28;25.80;;;7.95;;
30818;SDS011;17546;42.674;23.284;2023-05-17T10:36:55;23.35;;;9.55;;
30818;SDS011;17546;42.674;23.284;2023-05-17T10:39:22;32.72;;;8.82;;
30818;SDS011;17546;42.674;23.284;2023-05-17T10:41:49;29.48;;;9.30;;
30818;SDS011;17546;42.674;23.284;2023-05-17T10:44:17;20.67;;;8.35;;
30818;SDS011;17546;42.674;23.284;2023-05-17T10:46:52;27.17;;;8.48;;
30818;SDS011;17546;42.674;23.284;2023-05-17T10:49:22;23.80;;;8.30;;
30818;SDS011;17546;42.674;23.284;2023-05-17T10:51:48;24.38;;;8.57;;
30818;SDS011;17546;42.674;23.284;2023-05-17T10:54:15;26.20;;;8.85;;
30818;SDS011;17546;42.674;23.284;2023-05-17T10:56:47;27.35;;;8.40;;
30818;SDS011;17546;42.674;23.284;2023-05-17T11:01:53;30.17;;;9.70;;
30818;SDS011;17546;42.674;23.284;2023-05-17T11:06:53;25.95;;;9.05;;
30818;SDS011;17546;42.674;23.284;2023-05-17T11:09:41;27.77;;;9.70;;
30818;SDS011;17546;42.674;23.284;2023-05-17T11:12:51;20.63;;;8.55;;
30818;SDS011;17546;42.674;23.284;2023-05-17T11:15:14;25.15;;;9.07;;
30818;SDS011;17546;42.674;23.284;2023-05-17T11:20:07;29.30;;;9.57;;
30818;SDS011;17546;42.674;23.284;2023-05-17T11:22:40;25.05;;;8.80;;
30818;SDS011;17546;42.674;23.284;2023-05-17T11:25:12;26.10;;;8.75;;
30818;SDS011;17546;42.674;23.284;2023-05-17T11:27:41;23.20;;;9.38;;
30818;SDS011;17546;42.674;23.284;2023-05-17T11:32:45;26.20;;;10.45;;
30818;SDS011;17546;42.674;23.284;2023-05-17T11:35:13;22.35;;;10.18;;
30818;SDS011;17546;42.674;23.284;2023-05-17T11:37:40;25.63;;;10.93;;
30818;SDS011;17546;42.674;23.284;2023-05-17T11:40:08;32.10;;;10.65;;
30818;SDS011;17546;42.674;23.284;2023-05-17T11:42:36;28.00;;;10.13;;
30818;SDS011;17546;42.674;23.284;2023-05-17T11:45:02;33.30;;;11.23;;
30818;SDS011;17546;42.674;23.284;2023-05-17T11:47:28;29.75;;;10.95;;
30818;SDS011;17546;42.674;23.284;2023-05-17T11:49:54;29.75;;;10.73;;
30818;SDS011;17546;42.674;23.284;2023-05-17T11:52:24;27.23;;;9.68;;
30818;SDS011;17546;42.674;23.284;2023-05-17T11:54:49;26.08;;;10.32;;
30818;SDS011;17546;42.674;23.284;2023-05-17T11:57:16;28.02;;;10.13;;
30818;SDS011;17546;42.674;23.284;2023-05-17T11:59:45;29.52;;;9.93;;
30818;SDS011;17546;42.674;23.284;2023-05-17T12:02:24;27.40;;;9.45;;
30818;SDS011;17546;42.674;23.284;2023-05-17T12:04:54;25.35;;;9.30;;
30818;SDS011;17546;42.674;23.284;2023-05-17T12:07:19;28.95;;;10.00;;
30818;SDS011;17546;42.674;23.284;2023-05-17T12:09:45;23.95;;;9.63;;
30818;SDS011;17546;42.674;23.284;2023-05-17T12:12:11;38.55;;;10.50;;
30818;SDS011;17546;42.674;23.284;2023-05-17T12:14:37;26.85;;;10.05;;
30818;SDS011;17546;42.674;23.284;2023-05-17T12:17:04;24.88;;;9.73;;
30818;SDS011;17546;42.674;23.284;2023-05-17T12:19:33;25.63;;;9.30;;
30818;SDS011;17546;42.674;23.284;2023-05-17T12:22:04;27.58;;;9.30;;
30818;SDS011;17546;42.674;23.284;2023-05-17T12:24:36;33.40;;;10.05;;
30818;SDS011;17546;42.674;23.284;2023-05-17T12:27:10;22.42;;;9.40;;
30818;SDS011;17546;42.674;23.284;2023-05-17T12:29:37;29.35;;;9.32;;
30818;SDS011;17546;42.674;23.284;2023-05-17T12:32:04;22.52;;;9.27;;
30818;SDS011;17546;42.674;23.284;2023-05-17T12:34:30;23.98;;;8.50;;
30818;SDS011;17546;42.674;23.284;2023-05-17T12:36:56;24.75;;;9.38;;
30818;SDS011;17546;42.674;23.284;2023-05-17T12:39:22;29.27;;;9.25;;
30818;SDS011;17546;42.674;23.284;2023-05-17T12:41:48;21.25;;;9.50;;
30818;SDS011;17546;42.674;23.284;2023-05-17T12:44:18;29.55;;;8.93;;
30818;SDS011;17546;42.674;23.284;2023-05-17T12:46:44;23.48;;;8.90;;
30818;SDS011;17546;42.674;23.284;2023-05-17T12:49:17;30.00;;;9.75;;
30818;SDS011;17546;42.674;23.284;2023-05-17T12:51:45;26.73;;;10.48;;
30818;SDS011;17546;42.674;23.284;2023-05-17T12:54:32;30.50;;;9.27;;
30818;SDS011;17546;42.674;23.284;2023-05-17T12:57:10;24.05;;;10.02;;
30818;SDS011;17546;42.674;23.284;2023-05-17T12:59:44;26.33;;;9.43;;
30818;SDS011;17546;42.674;23.284;2023-05-17T13:02:11;26.15;;;10.10;;
30818;SDS011;17546;42.674;23.284;2023-05-17T13:04:37;21.80;;;9.40;;
30818;SDS011;17546;42.674;23.284;2023-05-17T13:07:03;24.58;;;10.20;;
30818;SDS011;17546;42.674;23.284;2023-05-17T13:09:30;21.63;;;9.43;;
30818;SDS011;17546;42.674;23.284;2023-05-17T13:11:57;21.85;;;10.13;;
30818;SDS011;17546;42.674;23.284;2023-05-17T13:17:07;24.08;;;9.10;;
30818;SDS011;17546;42.674;23.284;2023-05-17T13:19:33;24.38;;;9.45;;
30818;SDS011;17546;42.674;23.284;2023-05-17T13:22:00;27.40;;;9.65;;
30818;SDS011;17546;42.674;23.284;2023-05-17T13:24:25;43.17;;;8.05;;
30818;SDS011;17546;42.674;23.284;2023-05-17T13:26:52;28.30;;;8.00;;
30818;SDS011;17546;42.674;23.284;2023-05-17T13:29:18;21.08;;;8.30;;
30818;SDS011;17546;42.674;23.284;2023-05-17T13:31:44;26.33;;;8.05;;
30818;SDS011;17546;42.674;23.284;2023-05-17T13:34:09;20.48;;;7.40;;
30818;SDS011;17546;42.674;23.284;2023-05-17T13:36:35;22.35;;;7.93;;
30818;SDS011;17546;42.674;23.284;2023-05-17T13:39:00;29.15;;;8.77;;
30818;SDS011;17546;42.674;23.284;2023-05-17T13:41:26;20.92;;;7.95;;
30818;SDS011;17546;42.674;23.284;2023-05-17T13:43:52;18.55;;;7.82;;
30818;SDS011;17546;42.674;23.284;2023-05-17T13:46:17;21.77;;;7.85;;
30818;SDS011;17546;42.674;23.284;2023-05-17T13:48:43;29.60;;;9.13;;
30818;SDS011;17546;42.674;23.284;2023-05-17T13:51:08;22.27;;;9.20;;
30818;SDS011;17546;42.674;23.284;2023-05-17T13:53:34;23.35;;;7.93;;
30818;SDS011;17546;42.674;23.284;2023-05-17T13:55:59;24.15;;;8.32;;
30818;SDS011;17546;42.674;23.284;2023-05-17T13:58:25;30.08;;;10.10;;
30818;SDS011;17546;42.674;23.284;2023-05-17T14:00:50;25.15;;;7.30;;
30818;SDS011;17546;42.674;23.284;2023-05-17T14:03:16;19.92;;;6.47;;
30818;SDS011;17546;42.674;23.284;2023-05-17T14:05:41;22.73;;;6.47;;
30818;SDS011;17546;42.674;23.284;2023-05-17T14:08:08;29.70;;;6.63;;
30818;SDS011;17546;42.674;23.284;2023-05-17T14:10:34;24.73;;;6.82;;
30818;SDS011;17546;42.674;23.284;2023-05-17T14:13:00;19.05;;;6.45;;
30818;SDS011;17546;42.674;23.284;2023-05-17T14:15:26;26.05;;;6.68;;
30818;SDS011;17546;42.674;23.284;2023-05-17T14:17:52;25.88;;;7.43;;
30818;SDS011;17546;42.674;23.284;2023-05-17T14:20:17;25.83;;;7.40;;
30818;SDS011;17546;42.674;23.284;2023-05-17T14:22:43;28.92;;;7.00;;
30818;SDS011;17546;42.674;23.284;2023-05-17T14:25:10;26.42;;;7.10;;
30818;SDS011;17546;42.674;23.284;2023-05-17T14:27:35;23.15;;;7.22;;
30818;SDS011;17546;42.674;23.284;2023-05-17T14:30:01;23.08;;;6.25;;
30818;SDS011;17546;42.674;23.284;2023-05-17T14:32:28;18.25;;;6.55;;
30818;SDS011;17546;42.674;23.284;2023-05-17T14:34:53;23.50;;;6.63;;
30818;SDS011;17546;42.674;23.284;2023-05-17T14:37:18;37.35;;;7.70;;
30818;SDS011;17546;42.674;23.284;2023-05-17T14:39:46;25.58;;;7.03;;
30818;SDS011;17546;42.674;23.284;2023-05-17T14:42:11;25.65;;;7.30;;
30818;SDS011;17546;42.674;23.284;2023-05-17T14:44:37;32.55;;;7.15;;
30818;SDS011;17546;42.674;23.284;2023-05-17T14:47:05;19.88;;;6.75;;